Time;durP1;ratioP1;P1;durP2;ratioP2;P2;SDS_P1;SDS_P2;PMS_P1;PMS_P2;Temp;Humidity;BMP_temperature;BMP_pressure;BME280_temperature;BME280_humidity;BME280_pressure;Samples;Min_cycle;Max_cycle;Signal;HPM_P1;HPM_P2
2022/07/25 00:01:21;;;;;;;;;;;;;;;;;;6044963;23;8329;-82
2022/07/25 00:03:47;;;;;;;;;;;;;;;;;;6044717;23;8730;-82
2022/07/25 00:06:12;;;;;;;;;;;;;;;;;;5997879;24;8393;-82
2022/07/25 00:08:37;;;;;;;;;;;;;;;;;;6042865;23;8678;-85
2022/07/25 00:11:04;;;;;;;;;;;;;;;;;;6044291;23;8474;-82
2022/07/25 00:13:29;;;;;;;;;;;;;;;;;;5996996;24;7203;-83
2022/07/25 00:15:55;;;;;;;;;;;;;;;;;;6044113;23;8301;-83
2022/07/25 00:18:20;;;;;;;;;;;;;;;;;;6020555;23;8501;-82
2022/07/25 00:20:46;;;;;;;;;;;;;;;;;;6044552;23;6988;-82
2022/07/25 00:23:11;;;;;;;;;;;;;;;;;;5997827;24;8397;-83
2022/07/25 00:25:37;;;;;;;;;;;;;;;;;;6044671;23;8391;-84
2022/07/25 00:28:03;;;;;;;;;;;;;;;;;;6044692;23;6790;-82
2022/07/25 00:30:28;;;;;;;;;;;;;;;;;;5997306;24;7141;-82
2022/07/25 00:32:53;;;;;;;;;;;;;;;;;;6045166;23;8485;-81
2022/07/25 00:35:19;;;;;;;;;;;;;;;;;;6044515;23;7286;-82
2022/07/25 00:37:45;;;;;;;;;;;;;;;;;;5997397;24;8378;-81
2022/07/25 00:40:11;;;;;;;;;;;;;;;;;;6044386;23;7206;-82
2022/07/25 00:42:36;;;;;;;;;;;;;;;;;;5997304;24;7047;-81
2022/07/25 00:45:02;;;;;;;;;;;;;;;;;;6044350;23;8461;-82
2022/07/25 00:47:28;;;;;;;;;;;;;;;;;;5997261;24;7221;-82
2022/07/25 00:49:53;;;;;;;;;;;;;;;;;;5996753;24;8546;-82
2022/07/25 00:52:19;;;;;;;;;;;;;;;;;;6040720;23;7080;-88
2022/07/25 00:54:45;;;;;;;;;;;;;;;;;;5992853;24;8289;-86
2022/07/25 00:57:11;;;;;;;;;;;;;;;;;;5991937;24;7078;-88
2022/07/25 00:59:36;;;;;;;;;;;;;;;;;;5991499;24;8711;-87
2022/07/25 01:02:02;;;;;;;;;;;;;;;;;;6040427;23;7059;-83
2022/07/25 01:04:27;;;;;;;;;;;;;;;;;;6016883;23;7310;-84
2022/07/25 01:06:54;;;;;;;;;;;;;;;;;;6017994;23;8699;-82
2022/07/25 01:09:19;;;;;;;;;;;;;;;;;;6018061;23;8393;-82
2022/07/25 01:11:45;;;;;;;;;;;;;;;;;;6016784;23;7139;-82
2022/07/25 01:14:10;;;;;;;;;;;;;;;;;;5993021;24;8410;-87
2022/07/25 01:16:36;;;;;;;;;;;;;;;;;;5994023;24;8308;-83
2022/07/25 01:19:02;;;;;;;;;;;;;;;;;;5993747;24;7023;-85
2022/07/25 01:21:28;;;;;;;;;;;;;;;;;;5994121;24;8430;-83
2022/07/25 01:23:54;;;;;;;;;;;;;;;;;;5993878;24;8419;-83
2022/07/25 01:26:20;;;;;;;;;;;;;;;;;;5994890;24;7159;-83
2022/07/25 01:28:45;;;;;;;;;;;;;;;;;;5995219;24;8394;-83
2022/07/25 01:31:11;;;;;;;;;;;;;;;;;;5995848;24;8665;-82
2022/07/25 01:33:36;;;;;;;;;;;;;;;;;;5996784;24;7206;-82
2022/07/25 01:36:02;;;;;;;;;;;;;;;;;;5998066;24;8383;-82
2022/07/25 01:38:27;;;;;;;;;;;;;;;;;;6044942;23;8394;-85
2022/07/25 01:40:53;;;;;;;;;;;;;;;;;;6020298;23;8354;-83
2022/07/25 01:43:18;;;;;;;;;;;;;;;;;;6021863;23;7098;-81
2022/07/25 01:45:44;;;;;;;;;;;;;;;;;;5999016;24;9002;-81
2022/07/25 01:48:09;;;;;;;;;;;;;;;;;;5998944;24;8231;-81
2022/07/25 01:50:35;;;;;;;;;;;;;;;;;;5998998;24;7025;-83
2022/07/25 01:53:01;;;;;;;;;;;;;;;;;;6045542;23;7201;-81
2022/07/25 01:55:26;;;;;;;;;;;;;;;;;;5998701;24;6996;-81
2022/07/25 01:57:52;;;;;;;;;;;;;;;;;;5998581;24;7011;-82
2022/07/25 02:00:17;;;;;;;;;;;;;;;;;;6022028;23;8729;-81
2022/07/25 02:02:44;;;;;;;;;;;;;;;;;;6022261;23;6980;-81
2022/07/25 02:05:12;;;;;;;;;;;;;;;;;;5998876;24;8436;-81
2022/07/25 02:07:38;;;;;;;;;;;;;;;;;;6022208;23;8535;-81
2022/07/25 02:10:05;;;;;;;;;;;;;;;;;;5998848;24;7106;-81
2022/07/25 02:12:32;;;;;;;;;;;;;;;;;;5998495;24;8357;-81
2022/07/25 02:14:58;;;;;;;;;;;;;;;;;;6045922;23;8060;-81
2022/07/25 02:17:23;;;;;;;;;;;;;;;;;;5991122;24;7179;-87
2022/07/25 02:19:49;;;;;;;;;;;;;;;;;;6014295;23;7361;-86
2022/07/25 02:22:14;;;;;;;;;;;;;;;;;;5992894;24;7126;-85
2022/07/25 02:24:40;;;;;;;;;;;;;;;;;;5996825;24;6990;-82
2022/07/25 02:27:06;;;;;;;;;;;;;;;;;;5997199;24;7033;-84
2022/07/25 02:29:32;;;;;;;;;;;;;;;;;;6044708;23;8762;-82
2022/07/25 02:31:58;;;;;;;;;;;;;;;;;;5997056;24;7006;-83
2022/07/25 02:34:23;;;;;;;;;;;;;;;;;;5997102;24;8754;-83
2022/07/25 02:36:49;;;;;;;;;;;;;;;;;;6021463;23;7126;-81
2022/07/25 02:39:14;;;;;;;;;;;;;;;;;;5998426;24;6972;-82
2022/07/25 02:41:42;;;;;;;;;;;;;;;;;;6021477;23;8419;-83
2022/07/25 02:44:07;;;;;;;;;;;;;;;;;;5997982;24;8598;-82
2022/07/25 02:46:33;;;;;;;;;;;;;;;;;;5998241;24;8682;-81
2022/07/25 02:48:58;;;;;;;;;;;;;;;;;;5998232;24;7085;-81
2022/07/25 02:51:24;;;;;;;;;;;;;;;;;;6045297;23;8619;-85
2022/07/25 02:53:49;;;;;;;;;;;;;;;;;;5997773;24;7224;-82
2022/07/25 02:56:15;;;;;;;;;;;;;;;;;;5996869;24;8424;-82
2022/07/25 02:58:41;;;;;;;;;;;;;;;;;;5997580;24;7005;-82
2022/07/25 03:01:06;;;;;;;;;;;;;;;;;;5998278;24;7264;-81
2022/07/25 03:03:32;;;;;;;;;;;;;;;;;;5998089;24;8553;-82
2022/07/25 03:05:57;;;;;;;;;;;;;;;;;;5998255;24;6967;-82
2022/07/25 03:08:23;;;;;;;;;;;;;;;;;;5998039;24;8435;-81
2022/07/25 03:10:48;;;;;;;;;;;;;;;;;;5998130;24;7091;-82
2022/07/25 03:13:14;;;;;;;;;;;;;;;;;;5998524;24;7265;-81
2022/07/25 03:15:39;;;;;;;;;;;;;;;;;;5998016;24;7137;-81
2022/07/25 03:18:05;;;;;;;;;;;;;;;;;;5998442;24;6999;-81
2022/07/25 03:20:30;;;;;;;;;;;;;;;;;;5998086;24;8841;-81
2022/07/25 03:22:57;;;;;;;;;;;;;;;;;;5998092;24;8364;-81
2022/07/25 03:25:22;;;;;;;;;;;;;;;;;;6045365;23;7391;-81
2022/07/25 03:27:48;;;;;;;;;;;;;;;;;;5998030;24;8524;-81
2022/07/25 03:30:14;;;;;;;;;;;;;;;;;;5997976;24;7193;-81
2022/07/25 03:32:39;;;;;;;;;;;;;;;;;;5998590;24;7223;-81
2022/07/25 03:35:05;;;;;;;;;;;;;;;;;;5998064;24;6995;-81
2022/07/25 03:37:30;;;;;;;;;;;;;;;;;;6045552;23;8462;-81
2022/07/25 03:39:56;;;;;;;;;;;;;;;;;;5997541;24;6796;-81
2022/07/25 03:42:23;;;;;;;;;;;;;;;;;;5997408;24;7087;-81
2022/07/25 03:44:48;;;;;;;;;;;;;;;;;;5997411;24;8653;-81
2022/07/25 03:47:14;;;;;;;;;;;;;;;;;;5997534;24;8319;-81
2022/07/25 03:49:39;;;;;;;;;;;;;;;;;;5997748;24;8378;-81
2022/07/25 03:52:05;;;;;;;;;;;;;;;;;;5998243;24;8397;-81
2022/07/25 03:54:30;;;;;;;;;;;;;;;;;;5998202;24;8552;-81
2022/07/25 03:56:56;;;;;;;;;;;;;;;;;;5998023;24;7124;-81
2022/07/25 03:59:22;;;;;;;;;;;;;;;;;;6045107;23;7098;-81
2022/07/25 04:01:48;;;;;;;;;;;;;;;;;;5997636;24;7219;-81
2022/07/25 04:04:14;;;;;;;;;;;;;;;;;;5997700;24;7136;-81
2022/07/25 04:06:40;;;;;;;;;;;;;;;;;;5997977;24;8363;-81
2022/07/25 04:09:07;;;;;;;;;;;;;;;;;;5997805;24;8442;-81
2022/07/25 04:11:34;;;;;;;;;;;;;;;;;;5997784;24;7141;-81
2022/07/25 04:14:01;;;;;;;;;;;;;;;;;;6044713;23;8815;-81
2022/07/25 04:16:27;;;;;;;;;;;;;;;;;;5997807;24;8976;-81
2022/07/25 04:18:54;;;;;;;;;;;;;;;;;;5997372;24;8566;-81
2022/07/25 04:21:20;;;;;;;;;;;;;;;;;;5997456;24;7143;-81
2022/07/25 04:23:46;;;;;;;;;;;;;;;;;;6043999;23;8306;-81
2022/07/25 04:26:11;;;;;;;;;;;;;;;;;;5997950;24;7361;-81
2022/07/25 04:28:36;;;;;;;;;;;;;;;;;;5997617;24;8391;-81
2022/07/25 04:31:02;;;;;;;;;;;;;;;;;;5997556;24;8685;-81
2022/07/25 04:33:28;;;;;;;;;;;;;;;;;;6044737;23;7099;-81
2022/07/25 04:35:54;;;;;;;;;;;;;;;;;;5997870;24;7578;-81
2022/07/25 04:38:20;;;;;;;;;;;;;;;;;;5997472;24;8525;-81
2022/07/25 04:40:45;;;;;;;;;;;;;;;;;;5997876;24;8426;-81
2022/07/25 04:43:11;;;;;;;;;;;;;;;;;;5997541;24;8387;-81
2022/07/25 04:45:37;;;;;;;;;;;;;;;;;;5997607;24;7044;-81
2022/07/25 04:48:02;;;;;;;;;;;;;;;;;;5997767;24;7077;-81
2022/07/25 04:50:28;;;;;;;;;;;;;;;;;;5997525;24;8693;-81
2022/07/25 04:52:54;;;;;;;;;;;;;;;;;;6021363;23;8571;-81
2022/07/25 04:55:19;;;;;;;;;;;;;;;;;;6044331;23;8256;-81
2022/07/25 04:57:46;;;;;;;;;;;;;;;;;;5997441;24;7362;-81
2022/07/25 05:00:12;;;;;;;;;;;;;;;;;;5998990;24;7512;-81
2022/07/25 05:02:38;;;;;;;;;;;;;;;;;;6046448;23;7159;-81
2022/07/25 05:05:04;;;;;;;;;;;;;;;;;;5999028;24;6968;-83
2022/07/25 05:07:30;;;;;;;;;;;;;;;;;;6045345;23;8826;-81
2022/07/25 05:09:55;;;;;;;;;;;;;;;;;;5997860;24;8310;-81
2022/07/25 05:12:21;;;;;;;;;;;;;;;;;;5998761;24;8369;-82
2022/07/25 05:14:47;;;;;;;;;;;;;;;;;;5998451;24;7380;-82
2022/07/25 05:17:12;;;;;;;;;;;;;;;;;;5999190;24;8421;-81
2022/07/25 05:19:38;;;;;;;;;;;;;;;;;;5999305;24;8543;-81
2022/07/25 05:22:03;;;;;;;;;;;;;;;;;;6022518;23;8366;-81
2022/07/25 05:24:33;;;;;;;;;;;;;;;;;;5999096;24;8807;-81
2022/07/25 05:26:58;;;;;;;;;;;;;;;;;;5999154;24;7182;-81
2022/07/25 05:29:24;;;;;;;;;;;;;;;;;;5998377;24;8341;-82
2022/07/25 05:31:49;;;;;;;;;;;;;;;;;;5997615;24;8360;-81
2022/07/25 05:34:15;;;;;;;;;;;;;;;;;;5997832;24;6999;-81
2022/07/25 05:36:41;;;;;;;;;;;;;;;;;;5997959;24;7146;-81
2022/07/25 05:39:06;;;;;;;;;;;;;;;;;;5998060;24;8418;-81
2022/07/25 05:41:32;;;;;;;;;;;;;;;;;;5998719;24;8379;-81
2022/07/25 05:43:57;;;;;;;;;;;;;;;;;;5998823;24;7054;-81
2022/07/25 05:46:22;;;;;;;;;;;;;;;;;;5997319;24;8910;-80
2022/07/25 05:48:48;;;;;;;;;;;;;;;;;;5994451;24;8406;-84
2022/07/25 05:51:13;;;;;;;;;;;;;;;;;;5997575;24;8555;-81
2022/07/25 05:53:39;;;;;;;;;;;;;;;;;;5992776;24;8710;-86
2022/07/25 05:56:04;;;;;;;;;;;;;;;;;;5986268;24;8425;-88
2022/07/25 05:58:30;;;;;;;;;;;;;;;;;;5986100;24;8491;-88
2022/07/25 06:00:56;;;;;;;;;;;;;;;;;;5986271;24;7404;-86
2022/07/25 06:03:22;;;;;;;;;;;;;;;;;;5985832;24;8389;-88
2022/07/25 06:05:48;;;;;;;;;;;;;;;;;;5986259;24;8436;-88
2022/07/25 06:08:14;;;;;;;;;;;;;;;;;;5986297;24;8741;-88
2022/07/25 06:10:41;;;;;;;;;;;;;;;;;;5987047;24;7159;-86
2022/07/25 06:13:07;;;;;;;;;;;;;;;;;;5989597;24;7039;-87
2022/07/25 06:15:33;;;;;;;;;;;;;;;;;;5988864;24;8836;-87
2022/07/25 06:17:58;;;;;;;;;;;;;;;;;;5986695;24;7008;-88
2022/07/25 06:20:25;;;;;;;;;;;;;;;;;;5985925;24;8437;-87
2022/07/25 06:22:50;;;;;;;;;;;;;;;;;;5988789;24;7181;-87
2022/07/25 06:25:15;;;;;;;;;;;;;;;;;;5986568;24;8603;-86
2022/07/25 06:27:41;;;;;;;;;;;;;;;;;;5986198;24;6985;-87
2022/07/25 06:30:08;;;;;;;;;;;;;;;;;;5986013;24;8463;-88
2022/07/25 06:32:34;;;;;;;;;;;;;;;;;;6032763;23;7175;-87
2022/07/25 06:35:00;;;;;;;;;;;;;;;;;;5986380;24;8724;-86
2022/07/25 06:37:25;;;;;;;;;;;;;;;;;;6011347;23;9570;-88
2022/07/25 06:39:51;;;;;;;;;;;;;;;;;;5987730;24;7113;-88
2022/07/25 06:42:17;;;;;;;;;;;;;;;;;;5986947;24;8645;-87
2022/07/25 06:44:42;;;;;;;;;;;;;;;;;;5987632;24;8782;-87
2022/07/25 06:47:11;;;;;;;;;;;;;;;;;;6016373;23;8486;-84
2022/07/25 06:49:43;;;;;;;;;;;;;;;;;;5996370;24;8294;-82
2022/07/25 06:52:09;;;;;;;;;;;;;;;;;;6044384;23;7041;-83
2022/07/25 06:54:34;;;;;;;;;;;;;;;;;;5995218;24;7150;-86
2022/07/25 06:57:00;;;;;;;;;;;;;;;;;;5995239;24;7067;-87
2022/07/25 06:59:25;;;;;;;;;;;;;;;;;;5996220;24;8696;-80
2022/07/25 07:01:51;;;;;;;;;;;;;;;;;;5997410;24;8397;-80
2022/07/25 07:04:16;;;;;;;;;;;;;;;;;;5997288;24;6983;-81
2022/07/25 07:06:42;;;;;;;;;;;;;;;;;;5997748;24;8651;-80
2022/07/25 07:09:08;;;;;;;;;;;;;;;;;;5991812;24;7411;-80
2022/07/25 07:11:34;;;;;;;;;;;;;;;;;;5992238;24;8366;-85
2022/07/25 07:14:01;;;;;;;;;;;;;;;;;;5997675;24;8488;-81
2022/07/25 07:16:28;;;;;;;;;;;;;;;;;;5994550;24;8894;-80
2022/07/25 07:18:53;;;;;;;;;;;;;;;;;;5995878;24;8436;-85
2022/07/25 07:21:19;;;;;;;;;;;;;;;;;;5994447;24;8642;-84
2022/07/25 07:23:44;;;;;;;;;;;;;;;;;;5995230;24;8411;-87
2022/07/25 07:26:10;;;;;;;;;;;;;;;;;;5994207;24;8472;-80
2022/07/25 07:28:35;;;;;;;;;;;;;;;;;;5988127;24;8428;-87
2022/07/25 07:31:01;;;;;;;;;;;;;;;;;;5987101;24;8657;-87
2022/07/25 07:33:27;;;;;;;;;;;;;;;;;;5986154;24;7433;-88
2022/07/25 07:35:55;;;;;;;;;;;;;;;;;;6009315;23;7047;-85
2022/07/25 07:38:21;;;;;;;;;;;;;;;;;;5984586;24;8874;-87
2022/07/25 07:40:47;;;;;;;;;;;;;;;;;;5984482;24;8503;-86
2022/07/25 07:43:13;;;;;;;;;;;;;;;;;;5984133;24;7182;-87
2022/07/25 07:45:38;;;;;;;;;;;;;;;;;;5983857;24;8498;-85
2022/07/25 07:48:05;;;;;;;;;;;;;;;;;;5984558;24;9561;-87
2022/07/25 07:50:30;;;;;;;;;;;;;;;;;;5984122;24;8976;-86
2022/07/25 07:52:57;;;;;;;;;;;;;;;;;;5984201;24;8491;-88
2022/07/25 07:58:07;;;;;;;;;;;;;;;;;;5985850;24;7054;-86
2022/07/25 08:00:38;;;;;;;;;;;;;;;;;;5984118;24;8421;-86
2022/07/25 08:03:05;;;;;;;;;;;;;;;;;;5984894;24;8559;-85
2022/07/25 08:05:33;;;;;;;;;;;;;;;;;;5984658;24;8821;-87
2022/07/25 08:08:00;;;;;;;;;;;;;;;;;;5984031;24;9518;-85
2022/07/25 08:10:27;;;;;;;;;;;;;;;;;;5984342;24;8483;-86
2022/07/25 08:12:53;;;;;;;;;;;;;;;;;;5983932;24;7098;-86
2022/07/25 08:15:20;;;;;;;;;;;;;;;;;;5983914;24;7097;-86
2022/07/25 08:17:46;;;;;;;;;;;;;;;;;;5984815;24;7085;-86
2022/07/25 08:20:12;;;;;;;;;;;;;;;;;;5982224;24;8832;-84
2022/07/25 08:22:39;;;;;;;;;;;;;;;;;;5981380;24;8400;-88
2022/07/25 08:25:05;;;;;;;;;;;;;;;;;;5989108;24;8539;-79
2022/07/25 08:27:31;;;;;;;;;;;;;;;;;;6039355;23;8456;-86
2022/07/25 08:29:57;;;;;;;;;;;;;;;;;;5984458;24;8734;-83
2022/07/25 08:32:23;;;;;;;;;;;;;;;;;;5982624;24;7271;-80
2022/07/25 08:34:48;;;;;;;;;;;;;;;;;;5983357;24;8909;-82
2022/07/25 08:37:13;;;;;;;;;;;;;;;;;;5981735;24;8462;-83
2022/07/25 08:39:40;;;;;;;;;;;;;;;;;;5979749;24;8868;-82
2022/07/25 08:42:07;;;;;;;;;;;;;;;;;;5981393;24;7246;-82
2022/07/25 08:44:37;;;;;;;;;;;;;;;;;;5982967;24;8471;-82
2022/07/25 08:47:03;;;;;;;;;;;;;;;;;;5983871;24;8638;-84
2022/07/25 08:49:29;;;;;;;;;;;;;;;;;;5984349;24;8529;-83
2022/07/25 08:51:55;;;;;;;;;;;;;;;;;;5983664;24;8639;-83
2022/07/25 08:54:23;;;;;;;;;;;;;;;;;;5983706;24;7416;-82
2022/07/25 08:56:49;;;;;;;;;;;;;;;;;;5979334;24;8941;-85
2022/07/25 08:59:15;;;;;;;;;;;;;;;;;;5983448;24;8592;-87
2022/07/25 09:01:40;;;;;;;;;;;;;;;;;;5982871;24;8788;-86
2022/07/25 09:04:09;;;;;;;;;;;;;;;;;;5984363;24;8501;-84
2022/07/25 09:06:34;;;;;;;;;;;;;;;;;;5983688;24;8524;-86
2022/07/25 09:09:03;;;;;;;;;;;;;;;;;;5984155;24;8924;-87
2022/07/25 09:11:29;;;;;;;;;;;;;;;;;;5983165;24;7213;-84
2022/07/25 09:13:59;;;;;;;;;;;;;;;;;;6006720;23;7287;-87
2022/07/25 09:16:29;;;;;;;;;;;;;;;;;;5983404;24;8596;-86
2022/07/25 09:19:04;;;;;;;;;;;;;;;;;;5979084;24;8583;-82
2022/07/25 09:21:30;;;;;;;;;;;;;;;;;;6004374;23;8561;-83
2022/07/25 09:24:06;;;;;;;;;;;;;;;;;;5984000;24;7419;-83
2022/07/25 09:26:42;;;;;;;;;;;;;;;;;;6002463;23;8782;-82
2022/07/25 09:29:08;;;;;;;;;;;;;;;;;;6004795;23;8475;-83
2022/07/25 09:31:34;;;;;;;;;;;;;;;;;;5982582;24;8881;-82
2022/07/25 09:34:02;;;;;;;;;;;;;;;;;;5983235;24;8550;-88
2022/07/25 09:36:27;;;;;;;;;;;;;;;;;;5984174;24;7116;-85
2022/07/25 09:38:54;;;;;;;;;;;;;;;;;;5983951;24;8549;-85
2022/07/25 09:41:20;;;;;;;;;;;;;;;;;;5984750;24;8769;-85
2022/07/25 09:43:46;;;;;;;;;;;;;;;;;;5985560;24;8751;-85
2022/07/25 09:46:12;;;;;;;;;;;;;;;;;;5985121;24;7164;-85
2022/07/25 09:48:38;;;;;;;;;;;;;;;;;;5985170;24;8497;-84
2022/07/25 09:51:05;;;;;;;;;;;;;;;;;;5983970;24;7521;-85
2022/07/25 09:53:32;;;;;;;;;;;;;;;;;;5985033;24;8505;-87
2022/07/25 09:55:58;;;;;;;;;;;;;;;;;;5984580;24;8482;-86
2022/07/25 09:58:25;;;;;;;;;;;;;;;;;;5986034;24;8477;-88
2022/07/25 10:00:55;;;;;;;;;;;;;;;;;;5985187;24;7413;-86
2022/07/25 10:03:23;;;;;;;;;;;;;;;;;;6032186;23;8811;-86
2022/07/25 10:05:59;;;;;;;;;;;;;;;;;;6008384;23;8568;-86
2022/07/25 10:08:26;;;;;;;;;;;;;;;;;;6008829;23;8488;-87
2022/07/25 10:10:52;;;;;;;;;;;;;;;;;;5985389;24;8581;-89
2022/07/25 10:13:28;;;;;;;;;;;;;;;;;;5984985;24;8771;-85
2022/07/25 10:15:53;;;;;;;;;;;;;;;;;;6002531;23;8556;-87
2022/07/25 10:18:20;;;;;;;;;;;;;;;;;;5984900;24;8464;-87
2022/07/25 10:20:47;;;;;;;;;;;;;;;;;;5984989;24;8391;-87
2022/07/25 10:23:19;;;;;;;;;;;;;;;;;;5984515;24;8537;-86
2022/07/25 10:25:45;;;;;;;;;;;;;;;;;;6030243;23;8483;-89
2022/07/25 10:28:15;;;;;;;;;;;;;;;;;;5983751;24;8722;-87
2022/07/25 10:30:42;;;;;;;;;;;;;;;;;;5983225;24;8501;-87
2022/07/25 10:33:16;;;;;;;;;;;;;;;;;;5982255;24;8615;-86
2022/07/25 10:35:42;;;;;;;;;;;;;;;;;;5983009;24;8627;-86
2022/07/25 10:38:08;;;;;;;;;;;;;;;;;;5978953;24;8583;-88
2022/07/25 10:40:46;;;;;;;;;;;;;;;;;;5983360;24;8438;-87
2022/07/25 10:43:14;;;;;;;;;;;;;;;;;;5982364;24;7326;-89
2022/07/25 10:45:41;;;;;;;;;;;;;;;;;;5981811;24;8720;-85
2022/07/25 10:48:11;;;;;;;;;;;;;;;;;;5983122;24;9039;-87
2022/07/25 10:51:10;;;;;;;;;;;;;;;;;;5983173;24;8517;-87
2022/07/25 10:53:38;;;;;;;;;;;;;;;;;;5937621;24;8426;-89
2022/07/25 10:56:05;;;;;;;;;;;;;;;;;;5983050;24;8899;-88
2022/07/25 10:58:49;;;;;;;;;;;;;;;;;;5983153;24;8631;-82
2022/07/25 11:01:23;;;;;;;;;;;;;;;;;;5983892;24;7126;-86
2022/07/25 11:03:50;;;;;;;;;;;;;;;;;;5982662;24;7224;-86
2022/07/25 11:06:16;;;;;;;;;;;;;;;;;;5983586;24;7310;-86
2022/07/25 11:08:43;;;;;;;;;;;;;;;;;;5983410;24;8507;-86
2022/07/25 11:11:10;;;;;;;;;;;;;;;;;;5983687;24;7192;-85
2022/07/25 11:13:40;;;;;;;;;;;;;;;;;;5983234;24;8602;-86
2022/07/25 11:16:06;;;;;;;;;;;;;;;;;;5983228;24;8491;-87
2022/07/25 11:18:33;;;;;;;;;;;;;;;;;;5983225;24;7449;-88
2022/07/25 11:20:59;;;;;;;;;;;;;;;;;;5983553;24;8472;-87
2022/07/25 11:23:25;;;;;;;;;;;;;;;;;;5983134;24;8482;-89
2022/07/25 11:25:50;;;;;;;;;;;;;;;;;;5983039;24;8594;-87
2022/07/25 11:28:16;;;;;;;;;;;;;;;;;;5982685;24;8481;-86
2022/07/25 11:30:41;;;;;;;;;;;;;;;;;;5983516;24;8564;-87
2022/07/25 11:33:07;;;;;;;;;;;;;;;;;;5983622;24;8341;-88
2022/07/25 11:35:32;;;;;;;;;;;;;;;;;;5982783;24;8479;-87
2022/07/25 11:38:00;;;;;;;;;;;;;;;;;;5983176;24;8437;-84
2022/07/25 11:40:25;;;;;;;;;;;;;;;;;;5983431;24;8899;-87
2022/07/25 11:42:52;;;;;;;;;;;;;;;;;;5983317;24;8816;-88
2022/07/25 11:45:23;;;;;;;;;;;;;;;;;;5991733;24;7470;-78
2022/07/25 11:48:08;;;;;;;;;;;;;;;;;;5996729;24;8537;-78
2022/07/25 11:50:36;;;;;;;;;;;;;;;;;;5989844;24;8769;-79
2022/07/25 11:53:04;;;;;;;;;;;;;;;;;;5983955;24;7235;-85
2022/07/25 11:55:31;;;;;;;;;;;;;;;;;;5983694;24;7223;-84
2022/07/25 11:57:58;;;;;;;;;;;;;;;;;;5982680;24;8531;-83
2022/07/25 12:00:23;;;;;;;;;;;;;;;;;;5984060;24;8498;-84
2022/07/25 12:02:49;;;;;;;;;;;;;;;;;;5984274;24;8449;-84
2022/07/25 12:05:19;;;;;;;;;;;;;;;;;;5987049;24;8464;-84
2022/07/25 12:07:47;;;;;;;;;;;;;;;;;;6034334;23;9105;-79
2022/07/25 12:10:23;;;;;;;;;;;;;;;;;;5986303;24;8229;-78
2022/07/25 12:12:53;;;;;;;;;;;;;;;;;;5989138;24;8668;-78
2022/07/25 12:15:21;;;;;;;;;;;;;;;;;;5984369;24;8541;-80
2022/07/25 12:17:47;;;;;;;;;;;;;;;;;;5983868;24;7130;-79
2022/07/25 12:20:14;;;;;;;;;;;;;;;;;;5983902;24;8571;-78
2022/07/25 12:22:40;;;;;;;;;;;;;;;;;;5983679;24;8471;-78
2022/07/25 12:25:06;;;;;;;;;;;;;;;;;;5984100;24;8533;-79
2022/07/25 12:27:32;;;;;;;;;;;;;;;;;;6031558;23;8526;-80
2022/07/25 12:29:57;;;;;;;;;;;;;;;;;;5983649;24;8504;-79
2022/07/25 12:32:23;;;;;;;;;;;;;;;;;;5983980;24;8618;-78
2022/07/25 12:34:48;;;;;;;;;;;;;;;;;;5984346;24;8452;-79
2022/07/25 12:37:14;;;;;;;;;;;;;;;;;;5983785;24;8849;-79
2022/07/25 12:39:40;;;;;;;;;;;;;;;;;;5983531;24;7107;-79
2022/07/25 12:42:06;;;;;;;;;;;;;;;;;;6030878;23;8877;-81
2022/07/25 12:44:31;;;;;;;;;;;;;;;;;;5983618;24;7113;-80
2022/07/25 12:46:57;;;;;;;;;;;;;;;;;;5978338;24;7186;-80
2022/07/25 12:49:22;;;;;;;;;;;;;;;;;;5982977;24;8493;-80
2022/07/25 12:51:48;;;;;;;;;;;;;;;;;;5983219;24;8708;-80
2022/07/25 12:54:14;;;;;;;;;;;;;;;;;;5983520;24;7069;-79
2022/07/25 12:56:40;;;;;;;;;;;;;;;;;;5983245;24;8482;-80
2022/07/25 12:59:06;;;;;;;;;;;;;;;;;;5983514;24;8422;-80
2022/07/25 13:01:31;;;;;;;;;;;;;;;;;;5983167;24;8505;-78
2022/07/25 13:03:56;;;;;;;;;;;;;;;;;;5982971;24;7064;-78
2022/07/25 13:06:22;;;;;;;;;;;;;;;;;;5984186;24;8487;-79
2022/07/25 13:08:48;;;;;;;;;;;;;;;;;;5983662;24;8485;-80
2022/07/25 13:11:13;;;;;;;;;;;;;;;;;;6031470;23;8442;-78
2022/07/25 13:13:39;;;;;;;;;;;;;;;;;;5983682;24;7088;-80
2022/07/25 13:16:05;;;;;;;;;;;;;;;;;;5984793;24;8364;-87
2022/07/25 13:18:30;;;;;;;;;;;;;;;;;;6031197;23;7239;-88
2022/07/25 13:20:56;;;;;;;;;;;;;;;;;;5984684;24;8607;-88
2022/07/25 13:23:22;;;;;;;;;;;;;;;;;;5986494;24;8855;-87
2022/07/25 13:25:48;;;;;;;;;;;;;;;;;;6038409;23;8795;-86
2022/07/25 13:28:14;;;;;;;;;;;;;;;;;;5986545;24;8469;-86
2022/07/25 13:30:39;;;;;;;;;;;;;;;;;;5986973;24;7041;-87
2022/07/25 13:33:04;;;;;;;;;;;;;;;;;;5987043;24;8744;-83
2022/07/25 13:35:32;;;;;;;;;;;;;;;;;;5992086;24;8461;-85
2022/07/25 13:37:58;;;;;;;;;;;;;;;;;;5988201;24;8901;-87
2022/07/25 13:40:23;;;;;;;;;;;;;;;;;;5986363;24;8647;-87
2022/07/25 13:42:49;;;;;;;;;;;;;;;;;;5986048;24;8877;-87
2022/07/25 13:45:14;;;;;;;;;;;;;;;;;;5985812;24;8542;-87
2022/07/25 13:47:40;;;;;;;;;;;;;;;;;;5985824;24;7419;-86
2022/07/25 13:50:07;;;;;;;;;;;;;;;;;;5985315;24;8523;-87
2022/07/25 13:52:32;;;;;;;;;;;;;;;;;;5985248;24;8469;-88
2022/07/25 13:54:58;;;;;;;;;;;;;;;;;;6008500;23;8492;-88
2022/07/25 13:57:23;;;;;;;;;;;;;;;;;;6033145;23;8569;-88
2022/07/25 13:59:49;;;;;;;;;;;;;;;;;;5985162;24;8573;-88
2022/07/25 14:02:14;;;;;;;;;;;;;;;;;;5986309;24;8666;-87
2022/07/25 14:04:40;;;;;;;;;;;;;;;;;;5986882;24;8563;-86
2022/07/25 14:07:05;;;;;;;;;;;;;;;;;;5986719;24;8651;-85
2022/07/25 14:09:31;;;;;;;;;;;;;;;;;;5986687;24;8448;-88
2022/07/25 14:11:57;;;;;;;;;;;;;;;;;;5985854;24;8452;-88
2022/07/25 14:14:22;;;;;;;;;;;;;;;;;;5985387;24;8557;-86
2022/07/25 14:16:47;;;;;;;;;;;;;;;;;;5987291;24;8580;-89
2022/07/25 14:19:14;;;;;;;;;;;;;;;;;;5986173;24;8978;-88
2022/07/25 14:21:40;;;;;;;;;;;;;;;;;;5985103;24;8969;-87
2022/07/25 14:24:05;;;;;;;;;;;;;;;;;;5982861;24;8480;-88
2022/07/25 14:26:33;;;;;;;;;;;;;;;;;;6031865;23;7197;-89
2022/07/25 14:28:58;;;;;;;;;;;;;;;;;;5984056;24;8428;-88
2022/07/25 14:31:24;;;;;;;;;;;;;;;;;;5986754;24;8754;-89
2022/07/25 14:33:49;;;;;;;;;;;;;;;;;;5987136;24;8398;-86
2022/07/25 14:36:15;;;;;;;;;;;;;;;;;;5985535;24;7075;-88
2022/07/25 14:38:40;;;;;;;;;;;;;;;;;;5984426;24;8416;-87
2022/07/25 14:41:06;;;;;;;;;;;;;;;;;;5986000;24;7097;-86
2022/07/25 14:43:32;;;;;;;;;;;;;;;;;;5985626;24;7062;-87
2022/07/25 14:45:57;;;;;;;;;;;;;;;;;;5987496;24;8452;-88
2022/07/25 14:48:23;;;;;;;;;;;;;;;;;;5984082;24;8420;-88
2022/07/25 14:50:48;;;;;;;;;;;;;;;;;;5984169;24;7156;-88
2022/07/25 14:53:14;;;;;;;;;;;;;;;;;;5984305;24;6845;-88
2022/07/25 14:55:39;;;;;;;;;;;;;;;;;;5983652;24;7169;-80
2022/07/25 14:58:05;;;;;;;;;;;;;;;;;;6007098;23;8811;-80
2022/07/25 15:00:32;;;;;;;;;;;;;;;;;;5982897;24;8479;-81
2022/07/25 15:02:58;;;;;;;;;;;;;;;;;;5983669;24;8853;-80
2022/07/25 15:05:24;;;;;;;;;;;;;;;;;;5983119;24;8529;-79
2022/07/25 15:07:49;;;;;;;;;;;;;;;;;;5982905;24;8432;-78
2022/07/25 15:10:15;;;;;;;;;;;;;;;;;;5982625;24;8483;-79
2022/07/25 15:12:40;;;;;;;;;;;;;;;;;;5984502;24;7036;-85
2022/07/25 15:15:06;;;;;;;;;;;;;;;;;;5985717;24;8604;-87
2022/07/25 15:17:32;;;;;;;;;;;;;;;;;;5988340;24;8408;-81
2022/07/25 15:19:58;;;;;;;;;;;;;;;;;;5989886;24;8467;-86
2022/07/25 15:22:23;;;;;;;;;;;;;;;;;;5986682;24;8435;-83
2022/07/25 15:24:49;;;;;;;;;;;;;;;;;;5984219;24;8388;-84
2022/07/25 15:27:14;;;;;;;;;;;;;;;;;;5988859;24;8413;-81
2022/07/25 15:29:40;;;;;;;;;;;;;;;;;;5985828;24;8661;-85
2022/07/25 15:32:07;;;;;;;;;;;;;;;;;;5989883;24;8460;-86
2022/07/25 15:34:32;;;;;;;;;;;;;;;;;;5985096;24;8730;-86
2022/07/25 15:36:58;;;;;;;;;;;;;;;;;;5987318;24;8421;-88
2022/07/25 15:39:23;;;;;;;;;;;;;;;;;;5982859;24;8460;-87
2022/07/25 15:41:49;;;;;;;;;;;;;;;;;;5983646;24;8300;-85
2022/07/25 15:44:14;;;;;;;;;;;;;;;;;;5982934;24;8371;-86
2022/07/25 15:46:40;;;;;;;;;;;;;;;;;;5983483;24;8394;-87
2022/07/25 15:49:06;;;;;;;;;;;;;;;;;;5981970;24;7022;-89
2022/07/25 15:51:32;;;;;;;;;;;;;;;;;;5983180;24;7161;-88
2022/07/25 15:53:57;;;;;;;;;;;;;;;;;;5983543;24;8640;-88
2022/07/25 15:56:24;;;;;;;;;;;;;;;;;;5984379;24;8644;-88
2022/07/25 15:58:50;;;;;;;;;;;;;;;;;;5982666;24;7234;-86
2022/07/25 16:01:15;;;;;;;;;;;;;;;;;;5983342;24;8452;-85
2022/07/25 16:03:41;;;;;;;;;;;;;;;;;;5983569;24;7038;-88
2022/07/25 16:06:07;;;;;;;;;;;;;;;;;;5983428;24;8405;-88
2022/07/25 16:08:34;;;;;;;;;;;;;;;;;;5983584;24;7058;-88
2022/07/25 16:11:00;;;;;;;;;;;;;;;;;;5983603;24;7187;-87
2022/07/25 16:13:26;;;;;;;;;;;;;;;;;;5983056;24;8630;-88
2022/07/25 16:15:51;;;;;;;;;;;;;;;;;;5982980;24;8438;-88
2022/07/25 16:18:16;;;;;;;;;;;;;;;;;;5983397;24;7419;-86
2022/07/25 16:20:42;;;;;;;;;;;;;;;;;;5982829;24;9431;-86
2022/07/25 16:23:09;;;;;;;;;;;;;;;;;;5983063;23;8707;-87
2022/07/25 16:25:34;;;;;;;;;;;;;;;;;;5982266;24;7133;-86
2022/07/25 16:28:00;;;;;;;;;;;;;;;;;;5982531;24;7172;-87
2022/07/25 16:30:26;;;;;;;;;;;;;;;;;;5982513;24;8458;-86
2022/07/25 16:32:51;;;;;;;;;;;;;;;;;;5984035;24;8695;-87
2022/07/25 16:35:17;;;;;;;;;;;;;;;;;;5984791;24;8471;-86
2022/07/25 16:37:42;;;;;;;;;;;;;;;;;;5983658;24;7147;-86
2022/07/25 16:40:08;;;;;;;;;;;;;;;;;;6007482;23;8799;-86
2022/07/25 16:42:34;;;;;;;;;;;;;;;;;;5984028;24;8474;-86
2022/07/25 16:45:00;;;;;;;;;;;;;;;;;;5983661;24;8609;-87
2022/07/25 16:47:25;;;;;;;;;;;;;;;;;;5984227;24;7070;-86
2022/07/25 16:49:51;;;;;;;;;;;;;;;;;;5983993;24;8776;-87
2022/07/25 16:52:16;;;;;;;;;;;;;;;;;;5983786;24;8770;-86
2022/07/25 16:54:42;;;;;;;;;;;;;;;;;;5983996;24;8470;-86
2022/07/25 16:57:07;;;;;;;;;;;;;;;;;;5989862;24;7101;-87
2022/07/25 16:59:34;;;;;;;;;;;;;;;;;;5985833;24;7064;-87